EHRDEHGG

Guest
Details From EHRD - Rotterdam The Hague
To EHGG - Eelde
Flight Number -
Tags decoded
Created
Modified
Stats Distance 105 nm / 194 km
Max Altitude 0 ft / 0 m
Waypoints 2
Social Downloads 6
Likes 0
Share VATSIM

Download

Looking for another format? Having issues loading an existing format? Contact us
Advertisement - Login to hide

Notes

Requested: EHRD EHGG

Route

EHRD EHGG

ID Type Via Altitude Latitude Longitude Leg Dist Tot Dist Heading (true) Name
O EHRD APT - 0 ft / 0 m 51.95747˚ 4.44166˚ - 0 nm - Rotterdam The Hague
O EHGG APT - 0 ft / 0 m 53.12103˚ 6.57707˚ 104 nm 104 nm 47° / 49° Eelde

Altitude Profile

Advertisement - Login to hide

EHRD

Details ICAO EHRD (RTM)
Name Rotterdam The Hague
Region Netherlands
Timezone Europe/Amsterdam (UTC+2.0)
Stats Elevation -15 ft / -5 m (AMSL)
Location 51.957468° 4.441662°
Runways 1
Magnetic Variation 1.111° E

METAR

EHRD 270555Z AUTO 07009KT 9999 NSC 21/13 Q1018 NOSIG

Decode

TAF

TAF EHRD 262235Z 2700/2806 07010KT CAVOK PROB30 TEMPO 2715/2721 15015G25KT 5000 SHRA TSRA SCT050CB BECMG 2717/2720 11005KT PROB30 2801/2805 4000 BR MIFG

Decode

Departure Runways

ID Width Length Bearing (true) Bearing (mag) Surface Threshold Offset Overrun Length
06 148 ft / 45 m 7,201 ft / 2,195 m 56.93° 55.82° Asphalt 656 ft / 200 m 0 ft / 0 m
24 148 ft / 45 m 7,201 ft / 2,195 m 236.95° 235.84° Asphalt 656 ft / 200 m 0 ft / 0 m

EHGG

Details ICAO EHGG (GRQ)
Name Eelde
Region Netherlands
Timezone Europe/Amsterdam (UTC+2.0)
Stats Elevation 17 ft / 5 m (AMSL)
Location 53.121033° 6.577073°
Runways 2
Magnetic Variation 1.754° E

METAR

EHGG 270555Z AUTO 06007KT 030V090 9999 NCD 18/13 Q1021 NOSIG

Decode

TAF

TAF EHGG 262241Z 2700/2806 08010KT CAVOK BECMG 2721/2724 11005KT

Decode

Destination Runways

ID Width Length Bearing (true) Bearing (mag) Surface Threshold Offset Overrun Length
01 148 ft / 45 m 4,918 ft / 1,499 m 8.73° 6.98° Asphalt 0 ft / 0 m 0 ft / 0 m
05 148 ft / 45 m 8,185 ft / 2,495 m 51.78° 50.03° Asphalt 0 ft / 0 m 98 ft / 30 m
19 148 ft / 45 m 4,918 ft / 1,499 m 188.74° 186.99° Asphalt 0 ft / 0 m 0 ft / 0 m
23 148 ft / 45 m 8,185 ft / 2,495 m 231.81° 230.06° Asphalt 0 ft / 0 m 98 ft / 30 m

Approach Navaids

Runway Type Ident Frequency Range Bearing (true) Bearing (mag) Slope Elevation
23 Localiser GRO 109.90 MHz 18 nm / 33 km 231.79° 230.04° - 17 ft / 5 m (AMSL)
23 Glidescope GRO 109.90 MHz 15 nm / 28 km 232.94° 231.19° 3.00° 17 ft / 5 m (AMSL)
23 DME GRO 109.90 MHz 18 nm / 33 km - - - 17 ft / 5 m (AMSL)

Popular Alternatives